Home > Products > Valid Products > TAF

000
FTUS45 KABQ 011700
TAFLVS
TAF
KLVS 011736Z 0118/0218 24018G28KT P6SM FEW080
     FM012100 25025G33KT P6SM SCT080
     FM020100 22010KT P6SM SKC
     FM021600 25018G25KT P6SM SKC=



000
FTUS45 KABQ 011700
TAFTCC
TAF
KTCC 011736Z 0118/0218 27015G25KT P6SM SKC
     FM012100 26023G33KT P6SM SKC
     FM020100 28011KT P6SM SKC
     FM021600 26015G25KT P6SM SKC=



000
FTUS45 KABQ 011700
TAFFMN
TAF
KFMN 011736Z 0118/0218 26020G28KT P6SM FEW080
     FM020000 29008KT P6SM SKC
     FM021600 26012G20KT P6SM SKC=



000
FTUS45 KABQ 011700
TAFGUP
TAF
KGUP 011736Z 0118/0218 25023G32KT P6SM FEW070
     FM020100 23013KT P6SM SKC
     FM020400 20010KT P6SM SKC
     FM021400 23015G23KT P6SM SKC=



000
FTUS45 KABQ 011700
TAFABQ
TAF
KABQ 011736Z 0118/0218 27022G32KT P6SM FEW080
     FM020100 24010KT P6SM SKC
     FM020500 15006KT P6SM SKC
     FM021700 23012G22KT P6SM SKC=



000
FTUS45 KABQ 011700
TAFSAF
TAF
KSAF 011736Z 0118/0218 25015G23KT P6SM FEW080
     FM012000 26020G30KT P6SM SCT080
     FM020000 28013KT P6SM FEW090
     FM020500 VRB06KT P6SM SKC
     FM021600 24012G20KT P6SM SKC=



000
FTUS45 KABQ 011700
TAFROW
TAF
KROW 011736Z 0118/0218 28010KT P6SM SKC
     FM012000 25012G20KT P6SM FEW080
     FM020100 23010KT P6SM SKC=



000
FTUS45 KABQ 011700
TAFABQ
TAF
KABQ 011736Z 0118/0218 27022G32KT P6SM FEW080
     FM020100 24010KT P6SM SKC
     FM020500 15006KT P6SM SKC
     FM021700 23012G22KT P6SM SKC=



000
FTUS45 KABQ 011700
TAFSAF
TAF
KSAF 011736Z 0118/0218 25015G23KT P6SM FEW080
     FM012000 26020G30KT P6SM SCT080
     FM020000 28013KT P6SM FEW090
     FM020500 VRB06KT P6SM SKC
     FM021600 24012G20KT P6SM SKC=



000
FTUS45 KABQ 011700
TAFFMN
TAF
KFMN 011736Z 0118/0218 26020G28KT P6SM FEW080
     FM020000 29008KT P6SM SKC
     FM021600 26012G20KT P6SM SKC=



000
FTUS45 KABQ 011700
TAFLVS
TAF
KLVS 011736Z 0118/0218 24018G28KT P6SM FEW080
     FM012100 25025G33KT P6SM SCT080
     FM020100 22010KT P6SM SKC
     FM021600 25018G25KT P6SM SKC=



000
FTUS45 KABQ 011700
TAFROW
TAF
KROW 011736Z 0118/0218 28010KT P6SM SKC
     FM012000 25012G20KT P6SM FEW080
     FM020100 23010KT P6SM SKC=



000
FTUS45 KABQ 011700
TAFGUP
TAF
KGUP 011736Z 0118/0218 25023G32KT P6SM FEW070
     FM020100 23013KT P6SM SKC
     FM020400 20010KT P6SM SKC
     FM021400 23015G23KT P6SM SKC=



000
FTUS45 KABQ 011700
TAFTCC
TAF
KTCC 011736Z 0118/0218 27015G25KT P6SM SKC
     FM012100 26023G33KT P6SM SKC
     FM020100 28011KT P6SM SKC
     FM021600 26015G25KT P6SM SKC=



000
FTUS45 KABQ 011100
TAFSAF
TAF
KSAF 011132Z 0112/0212 VRB04KT P6SM SCT120
     FM011500 32008KT P6SM FEW090 SCT120
     FM011800 26015G25KT P6SM FEW100
     FM012100 26020G30KT P6SM SCT100
     FM020100 27012G20KT P6SM FEW110
     FM020600 24007KT P6SM SKC=



000
FTUS45 KABQ 011100
TAFLVS
TAF
KLVS 011132Z 0112/0212 25007KT P6SM SCT120
     FM011600 24015G23KT P6SM FEW080 SCT120
     FM012000 25023G33KT P6SM SCT100
     FM020100 24015G22KT P6SM FEW100
     FM020600 23011KT P6SM SKC=



000
FTUS45 KABQ 011100
TAFROW
TAF
KROW 011132Z 0112/0212 13006KT P6SM SKC
     FM011500 33008KT P6SM SKC
     FM012000 25012G20KT P6SM FEW120
     FM020100 24010KT P6SM FEW120=



000
FTUS45 KABQ 011100
TAFGUP
TAF
KGUP 011132Z 0112/0212 22006KT P6SM SCT110
     FM011500 23013G21KT P6SM FEW100
     FM012000 24023G33KT P6SM SCT100
     FM020100 23013G20KT P6SM FEW120
     FM020400 22010KT P6SM SKC=



000
FTUS45 KABQ 011100
TAFFMN
TAF
KFMN 011132Z 0112/0212 25006KT P6SM SCT120
     FM011700 25012KT P6SM FEW110
     FM012000 26018G27KT P6SM SCT110
     FM020100 27010KT P6SM FEW120=



000
FTUS45 KABQ 011100
TAFABQ
TAF
KABQ 011132Z 0112/0212 15008KT P6SM FEW120
     FM011500 22008KT P6SM SCT120
     FM011800 25013G21KT P6SM FEW110
     FM012100 26018G28KT P6SM SCT110
     FM020100 28010KT P6SM FEW120
     FM020600 23006KT P6SM SKC=



000
FTUS45 KABQ 011100
TAFTCC
TAF
KTCC 011132Z 0112/0212 24010KT P6SM SKC
     FM011500 30010KT P6SM FEW100
     FM011800 27015G25KT P6SM SCT110
     FM012100 26022G32KT P6SM SCT120
     FM020100 26013KT P6SM FEW120=



000
FTUS45 KABQ 011100
TAFSAF
TAF
KSAF 011132Z 0112/0212 VRB04KT P6SM SCT120
     FM011500 32008KT P6SM FEW090 SCT120
     FM011800 26015G25KT P6SM FEW100
     FM012100 26020G30KT P6SM SCT100
     FM020100 27012G20KT P6SM FEW110
     FM020600 24007KT P6SM SKC=



000
FTUS45 KABQ 011100
TAFLVS
TAF
KLVS 011132Z 0112/0212 25007KT P6SM SCT120
     FM011600 24015G23KT P6SM FEW080 SCT120
     FM012000 25023G33KT P6SM SCT100
     FM020100 24015G22KT P6SM FEW100
     FM020600 23011KT P6SM SKC=



000
FTUS45 KABQ 011100
TAFGUP
TAF
KGUP 011132Z 0112/0212 22006KT P6SM SCT110
     FM011500 23013G21KT P6SM FEW100
     FM012000 24023G33KT P6SM SCT100
     FM020100 23013G20KT P6SM FEW120
     FM020400 22010KT P6SM SKC=



000
FTUS45 KABQ 011100
TAFROW
TAF
KROW 011132Z 0112/0212 13006KT P6SM SKC
     FM011500 33008KT P6SM SKC
     FM012000 25012G20KT P6SM FEW120
     FM020100 24010KT P6SM FEW120=



000
FTUS45 KABQ 011100
TAFFMN
TAF
KFMN 011132Z 0112/0212 25006KT P6SM SCT120
     FM011700 25012KT P6SM FEW110
     FM012000 26018G27KT P6SM SCT110
     FM020100 27010KT P6SM FEW120=



000
FTUS45 KABQ 011100
TAFABQ
TAF
KABQ 011132Z 0112/0212 15008KT P6SM FEW120
     FM011500 22008KT P6SM SCT120
     FM011800 25013G21KT P6SM FEW110
     FM012100 26018G28KT P6SM SCT110
     FM020100 28010KT P6SM FEW120
     FM020600 23006KT P6SM SKC=



000
FTUS45 KABQ 011100
TAFTCC
TAF
KTCC 011132Z 0112/0212 24010KT P6SM SKC
     FM011500 30010KT P6SM FEW100
     FM011800 27015G25KT P6SM SCT110
     FM012100 26022G32KT P6SM SCT120
     FM020100 26013KT P6SM FEW120=



000
FTUS45 KABQ 010500
TAFGUP
TAF
KGUP 010522Z 0106/0206 22006KT P6SM SCT120
     FM011500 23012G20KT P6SM FEW100
     FM012000 24022G32KT P6SM SCT100=



000
FTUS45 KABQ 010500
TAFLVS
TAF
KLVS 010522Z 0106/0206 VRB06KT P6SM FEW120
     FM011100 27007KT P6SM SCT120
     FM011600 24015G22KT P6SM FEW080 SCT120
     FM012000 25022G32KT P6SM SCT100 SCT200=



000
FTUS45 KABQ 010500
TAFABQ
TAF
KABQ 010522Z 0106/0206 15006KT P6SM SCT120
     FM011200 21006KT P6SM SCT120
     FM011700 25012KT P6SM SCT110
     FM012000 26015G25KT P6SM SCT110 SCT200=



000
FTUS45 KABQ 010500
TAFROW
TAF
KROW 010522Z 0106/0206 22010KT P6SM SCT130 BKN200
     FM011000 33008KT P6SM FEW130 SCT200
     FM012000 24015KT P6SM SCT130 SCT200=



000
FTUS45 KABQ 010500
TAFFMN
TAF
KFMN 010522Z 0106/0206 VRB06KT P6SM SCT120
     FM010700 09007KT P6SM SCT120
     FM011700 24010KT P6SM FEW110
     FM012000 26015G25KT P6SM SCT110=



000
FTUS45 KABQ 010500
TAFTCC
TAF
KTCC 010522Z 0106/0206 22007KT P6SM FEW130
     FM011200 26007KT P6SM SCT130
     FM011700 27013G20KT P6SM FEW120
     FM012000 25022G32KT P6SM SCT120 SCT200=



000
FTUS45 KABQ 010500
TAFSAF
TAF
KSAF 010522Z 0106/0206 36006KT P6SM SCT120
     FM011500 32008KT P6SM FEW090 SCT120
     FM011900 26015G25KT P6SM SCT100 SCT200=



000
FTUS45 KABQ 010500
TAFGUP
TAF
KGUP 010522Z 0106/0206 22006KT P6SM SCT120
     FM011500 23012G20KT P6SM FEW100
     FM012000 24022G32KT P6SM SCT100=



000
FTUS45 KABQ 010500
TAFLVS
TAF
KLVS 010522Z 0106/0206 VRB06KT P6SM FEW120
     FM011100 27007KT P6SM SCT120
     FM011600 24015G22KT P6SM FEW080 SCT120
     FM012000 25022G32KT P6SM SCT100 SCT200=



000
FTUS45 KABQ 010500
TAFFMN
TAF
KFMN 010522Z 0106/0206 VRB06KT P6SM SCT120
     FM010700 09007KT P6SM SCT120
     FM011700 24010KT P6SM FEW110
     FM012000 26015G25KT P6SM SCT110=



000
FTUS45 KABQ 010500
TAFTCC
TAF
KTCC 010522Z 0106/0206 22007KT P6SM FEW130
     FM011200 26007KT P6SM SCT130
     FM011700 27013G20KT P6SM FEW120
     FM012000 25022G32KT P6SM SCT120 SCT200=



000
FTUS45 KABQ 010500
TAFABQ
TAF
KABQ 010522Z 0106/0206 15006KT P6SM SCT120
     FM011200 21006KT P6SM SCT120
     FM011700 25012KT P6SM SCT110
     FM012000 26015G25KT P6SM SCT110 SCT200=



000
FTUS45 KABQ 010500
TAFROW
TAF
KROW 010522Z 0106/0206 22010KT P6SM SCT130 BKN200
     FM011000 33008KT P6SM FEW130 SCT200
     FM012000 24015KT P6SM SCT130 SCT200=



000
FTUS45 KABQ 010500
TAFSAF
TAF
KSAF 010522Z 0106/0206 36006KT P6SM SCT120
     FM011500 32008KT P6SM FEW090 SCT120
     FM011900 26015G25KT P6SM SCT100 SCT200=



000
FTUS45 KABQ 312300
TAFTCC
TAF
KTCC 312336Z 0100/0124 12006KT P6SM SCT120 SCT200
     FM010300 22007KT P6SM SCT130
     FM011200 26007KT P6SM FEW130
     FM011700 27013G20KT P6SM FEW120
     FM012000 25022G32KT P6SM SCT120 SCT200=



000
FTUS45 KABQ 312300
TAFLVS
TAF
KLVS 312336Z 0100/0124 29012KT P6SM SCT090 SCT200
     FM010200 21008KT P6SM SCT100
     FM010600 25007KT P6SM FEW100
     FM011600 24015G22KT P6SM FEW100
     FM012000 25022G32KT P6SM SCT100 SCT200=



000
FTUS45 KABQ 312300
TAFROW
TAF
KROW 312336Z 0100/0124 22008KT P6SM SCT130 BKN200
     FM011000 33006KT P6SM FEW130 SCT200
     FM012000 24015KT P6SM SCT130 SCT200=



000
FTUS45 KABQ 312300
TAFSAF
TAF
KSAF 312336Z 0100/0124 26010G18KT P6SM SCT100 SCT200
      TEMPO 0100/0102 36010KT
     FM010500 36006KT P6SM FEW120
     FM011500 32008KT P6SM FEW100
     FM011900 26015G25KT P6SM SCT100 SCT200=



000
FTUS45 KABQ 312300
TAFABQ
TAF
KABQ 312336Z 0100/0124 29012G18KT P6SM SCT110 SCT200
     FM010200 VRB06KT P6SM SCT120
     FM011200 21006KT P6SM SKC
     FM011700 25012KT P6SM SCT110
     FM012000 26015G25KT P6SM SCT110 SCT200=



000
FTUS45 KABQ 312300
TAFGUP
TAF
KGUP 312336Z 0100/0124 26012G20KT P6SM SCT100 SCT200
     FM010200 22006KT P6SM FEW120
     FM011500 23012G20KT P6SM FEW100
     FM012000 24022G32KT P6SM SCT100=



000
FTUS45 KABQ 312300
TAFFMN
TAF
KFMN 312336Z 0100/0124 26012G20KT P6SM VCSH SCT110 SCT200
     FM010200 29006KT P6SM FEW110
     FM010900 09007KT P6SM SKC
     FM011700 24010KT P6SM FEW110
     FM012000 26015G25KT P6SM SCT110=



000
FTUS45 KABQ 312300
TAFGUP
TAF
KGUP 312336Z 0100/0124 26012G20KT P6SM SCT100 SCT200
     FM010200 22006KT P6SM FEW120
     FM011500 23012G20KT P6SM FEW100
     FM012000 24022G32KT P6SM SCT100=



000
FTUS45 KABQ 312300
TAFFMN
TAF
KFMN 312336Z 0100/0124 26012G20KT P6SM VCSH SCT110 SCT200
     FM010200 29006KT P6SM FEW110
     FM010900 09007KT P6SM SKC
     FM011700 24010KT P6SM FEW110
     FM012000 26015G25KT P6SM SCT110=



000
FTUS45 KABQ 311700
TAFSAF
TAF
KSAF 311730Z 3118/0118 36008KT P6SM FEW100
     FM312000 26010G18KT P6SM SCT100
     FM312300 33010KT P6SM BKN100
     FM010500 36006KT P6SM FEW120=



000
FTUS45 KABQ 311700
TAFTCC
TAF
KTCC 311730Z 3118/0118 02010KT P6SM SKC
     FM312000 12005KT P6SM SCT250
     FM010300 26008KT P6SM FEW130=



000
FTUS45 KABQ 311700
TAFABQ
TAF
KABQ 311730Z 3118/0118 VRB04KT P6SM SKC
     FM312000 27008KT P6SM FEW100
     FM010100 VRB04KT P6SM BKN100
     FM010600 16005KT P6SM FEW120=



000
FTUS45 KABQ 311700
TAFLVS
TAF
KLVS 311730Z 3118/0118 19008KT P6SM FEW090
     FM312000 21012G20KT P6SM VCSH BKN090
     FM312300 29010KT P6SM BKN100
     FM010200 VRB05KT P6SM FEW100=



000
FTUS45 KABQ 311700
TAFLVS
TAF
KLVS 311730Z 3118/0118 19008KT P6SM FEW090
     FM312000 21012G20KT P6SM VCSH BKN090
     FM312300 29010KT P6SM BKN100
     FM010200 VRB05KT P6SM FEW100=



000
FTUS45 KABQ 311700
TAFROW
TAF
KROW 311730Z 3118/0118 06005KT P6SM BKN250
     FM312000 17007KT P6SM BKN250
     FM010000 22008KT P6SM SCT150
     FM011000 33005KT P6SM FEW130=



000
FTUS45 KABQ 311700
TAFTCC
TAF
KTCC 311730Z 3118/0118 02010KT P6SM SKC
     FM312000 12005KT P6SM SCT250
     FM010300 26008KT P6SM FEW130=



000
FTUS45 KABQ 311700
TAFFMN
TAF
KFMN 311730Z 3118/0118 VRB06KT P6SM SKC
     FM312000 26011G19KT P6SM SKC
     FM010000 29006KT P6SM SCT110
     FM010900 09007KT P6SM SKC=



000
FTUS45 KABQ 311700
TAFABQ
TAF
KABQ 311730Z 3118/0118 VRB04KT P6SM SKC
     FM312000 27008KT P6SM FEW100
     FM010100 VRB04KT P6SM BKN100
     FM010600 16005KT P6SM FEW120=



000
FTUS45 KABQ 311700
TAFGUP
TAF
KGUP 311730Z 3118/0118 26008KT P6SM SKC
     FM312000 25012G20KT P6SM FEW110
     FM010000 22006KT P6SM SCT110
     FM011000 VRB03KT P6SM SKC
     FM011600 23012G20KT P6SM SKC=



000
FTUS45 KABQ 311700
TAFSAF
TAF
KSAF 311730Z 3118/0118 36008KT P6SM FEW100
     FM312000 26010G18KT P6SM SCT100
     FM312300 33010KT P6SM BKN100
     FM010500 36006KT P6SM FEW120=



000
FTUS45 KABQ 311700
TAFGUP
TAF
KGUP 311730Z 3118/0118 26008KT P6SM SKC
     FM312000 25012G20KT P6SM FEW110
     FM010000 22006KT P6SM SCT110
     FM011000 VRB03KT P6SM SKC
     FM011600 23012G20KT P6SM SKC=



000
FTUS45 KABQ 311700
TAFROW
TAF
KROW 311730Z 3118/0118 06005KT P6SM BKN250
     FM312000 17007KT P6SM BKN250
     FM010000 22008KT P6SM SCT150
     FM011000 33005KT P6SM FEW130=



000
FTUS45 KABQ 311700
TAFFMN
TAF
KFMN 311730Z 3118/0118 VRB06KT P6SM SKC
     FM312000 26011G19KT P6SM SKC
     FM010000 29006KT P6SM SCT110
     FM010900 09007KT P6SM SKC=



000
FTUS45 KABQ 311100
TAFFMN
TAF
KFMN 311128Z 3112/0112 09008KT P6SM SCT250
     FM311500 12006KT P6SM SCT200
     FM312000 26012G20KT P6SM SCT150
     FM010100 28007KT P6SM BKN120
     FM010900 09007KT P6SM BKN100=



000
FTUS45 KABQ 311100
TAFABQ
TAF
KABQ 311128Z 3112/0112 01006KT P6SM SCT200
     FM312000 27007KT P6SM SCT150
     FM010100 VRB04KT P6SM SCT120
     FM011000 23005KT P6SM BKN120=



000
FTUS45 KABQ 311100
TAFGUP
TAF
KGUP 311128Z 3112/0112 VRB04KT P6SM SCT200
     FM311600 25008KT P6SM BKN200
     FM312000 25012G20KT P6SM SCT150
     FM010100 22006KT P6SM BKN120=



000
FTUS45 KABQ 311100
TAFROW
TAF
KROW 311128Z 3112/0112 35006KT P6SM OVC200
     FM311800 17007KT P6SM BKN200
     FM010200 22006KT P6SM BKN200=



000
FTUS45 KABQ 311100
TAFSAF
TAF
KSAF 311128Z 3112/0112 01015KT P6SM SCT200
     FM312000 27010G18KT P6SM SCT150
     FM010200 35005KT P6SM SCT120=



000
FTUS45 KABQ 311100
TAFLVS
TAF
KLVS 311128Z 3112/0112 34006KT P6SM SCT200
     FM311500 13006KT P6SM SCT200
     FM311900 21013G21KT P6SM VCSH SCT150
     FM010100 24008KT P6SM SCT120=



000
FTUS45 KABQ 311100
TAFTCC
TAF
KTCC 311128Z 3112/0112 30007KT P6SM SCT200
     FM311700 05006KT P6SM SCT200
     FM312000 12005KT P6SM SCT150
     FM010600 26008KT P6SM SCT120=



000
FTUS45 KABQ 310500
TAFSAF
TAF
KSAF 310534Z 3106/0106 01010KT P6SM SCT120 SCT200
     FM311300 36015KT P6SM SCT200
     FM312000 27010G18KT P6SM SCT100 SCT200=



000
FTUS45 KABQ 310500
TAFFMN
TAF
KFMN 310534Z 3106/0106 03007KT P6SM SCT200
     FM310800 09008KT P6SM SCT200
     FM311500 12006KT P6SM SCT200
     FM312000 26012G20KT P6SM FEW120 SCT200=



000
FTUS45 KABQ 310500
TAFTCC
TAF
KTCC 310534Z 3106/0106 29007KT P6SM SCT200
     FM311000 35007KT P6SM SCT200
     FM311700 14007KT P6SM SCT200
     FM312000 21012KT P6SM SCT110 SCT200=



000
FTUS45 KABQ 310500
TAFGUP
TAF
KGUP 310534Z 3106/0106 VRB06KT P6SM SCT200
     FM311600 25008KT P6SM SCT200
     FM312000 25012G20KT P6SM SCT100 SCT200=



000
FTUS45 KABQ 310500
TAFABQ
TAF
KABQ 310534Z 3106/0106 VRB06KT P6SM SCT200
     FM312000 27008KT P6SM SCT120 SCT200=



000
FTUS45 KABQ 310500
TAFSAF
TAF
KSAF 310534Z 3106/0106 01010KT P6SM SCT120 SCT200
     FM311300 36015KT P6SM SCT200
     FM312000 27010G18KT P6SM SCT100 SCT200=



000
FTUS45 KABQ 310500
TAFROW
TAF
KROW 310534Z 3106/0106 VRB06KT P6SM FEW120 SCT200
     FM311700 17007KT P6SM FEW100 SCT200=



000
FTUS45 KABQ 310500
TAFLVS
TAF
KLVS 310534Z 3106/0106 VRB06KT P6SM FEW120 SCT200
     FM310700 03006KT P6SM SCT200
     FM311500 13006KT P6SM SCT200
     FM311900 21013KT P6SM SCT100 SCT200=



000
FTUS45 KABQ 310500
TAFLVS
TAF
KLVS 310534Z 3106/0106 VRB06KT P6SM FEW120 SCT200
     FM310700 03006KT P6SM SCT200
     FM311500 13006KT P6SM SCT200
     FM311900 21013KT P6SM SCT100 SCT200=



000
FTUS45 KABQ 310500
TAFROW
TAF
KROW 310534Z 3106/0106 VRB06KT P6SM FEW120 SCT200
     FM311700 17007KT P6SM FEW100 SCT200=



000
FTUS45 KABQ 310500
TAFGUP
TAF
KGUP 310534Z 3106/0106 VRB06KT P6SM SCT200
     FM311600 25008KT P6SM SCT200
     FM312000 25012G20KT P6SM SCT100 SCT200=



000
FTUS45 KABQ 310500
TAFFMN
TAF
KFMN 310534Z 3106/0106 03007KT P6SM SCT200
     FM310800 09008KT P6SM SCT200
     FM311500 12006KT P6SM SCT200
     FM312000 26012G20KT P6SM FEW120 SCT200=



000
FTUS45 KABQ 310500
TAFABQ
TAF
KABQ 310534Z 3106/0106 VRB06KT P6SM SCT200
     FM312000 27008KT P6SM SCT120 SCT200=



000
FTUS45 KABQ 310500
TAFTCC
TAF
KTCC 310534Z 3106/0106 29007KT P6SM SCT200
     FM311000 35007KT P6SM SCT200
     FM311700 14007KT P6SM SCT200
     FM312000 21012KT P6SM SCT110 SCT200=



000
FTUS45 KABQ 302300
TAFTCC
TAF
KTCC 302327Z 3100/3124 23012G22KT P6SM VCSH SCT110 BKN200
     FM310200 25008KT P6SM SCT120 SCT200
     FM310600 29007KT P6SM SCT200
     FM311000 36007KT P6SM SCT200
     FM311600 14007KT P6SM SCT200
     FM312000 21012KT P6SM SCT110 SCT200=



000
FTUS45 KABQ 302300
TAFROW
TAF
KROW 302327Z 3100/3124 17015G22KT P6SM VCSH SCT120 BKN200
     FM310300 22006KT P6SM FEW120 SCT200
     FM311700 17007KT P6SM FEW100 SCT200=



000
FTUS45 KABQ 302300
TAFLVS
TAF
KLVS 302327Z 3100/3124 28015G22KT P6SM SCT100 BKN200
     FM310300 VRB06KT P6SM FEW120 SCT200
     FM310700 03006KT P6SM SCT200
     FM311300 13006KT P6SM SCT200
     FM311800 21013KT P6SM SCT100 SCT200=



000
FTUS45 KABQ 302300
TAFABQ
TAF
KABQ 302327Z 3100/3124 30010KT P6SM SCT120 BKN200
     FM310300 VRB06KT P6SM SCT200
     FM312000 27008KT P6SM SCT120 SCT200=



000
FTUS45 KABQ 302300
TAFSAF
TAF
KSAF 302327Z 3100/3124 32010G18KT P6SM VCSH BKN100 BKN200
     FM310200 01010KT P6SM SCT120 SCT200
     FM311300 36015KT P6SM SCT200
     FM312000 27010G18KT P6SM SCT100 SCT200=



000
FTUS45 KABQ 302300
TAFGUP
TAF
KGUP 302327Z 3100/3124 24012G18KT P6SM VCSH SCT120 SCT200
     FM310200 VRB06KT P6SM FEW120 SCT200
     FM311600 25008KT P6SM SCT200
     FM312000 26012G20KT P6SM SCT100 SCT200=



000
FTUS45 KABQ 302300
TAFFMN
TAF
KFMN 302327Z 3100/3124 28012G20KT P6SM FEW120 SCT200
     FM310200 VRB06KT P6SM SCT200
     FM310800 09008KT P6SM SCT200
     FM311500 12006KT P6SM SCT200
     FM312000 26012G20KT P6SM FEW120 SCT200=



000
FTUS45 KABQ 301800 CCA
TAFTCC
TAF COR
KTCC 301800Z 3018/3118 23010G20KT P6SM BKN200
     FM302100 23012G21KT P6SM SCT110 BKN200
     FM310200 25008KT P6SM FEW120 SCT200
     FM310600 29007KT P6SM SCT200
     FM311500 36007KT P6SM SCT200=



000
FTUS45 KABQ 301800 CCA
TAFTCC
TAF COR
KTCC 301800Z 3018/3118 23010G20KT P6SM BKN200
     FM302100 23012G21KT P6SM SCT110 BKN200
     FM310200 25008KT P6SM FEW120 SCT200
     FM310600 29007KT P6SM SCT200
     FM311500 36007KT P6SM SCT200=



000
FTUS45 KABQ 301700
TAFSAF
TAF
KSAF 301723Z 3018/3118 24008KT P6SM FEW120 SCT200
     FM302200 26010G18KT P6SM VCSH BKN110
     FM310100 01010KT P6SM FEW120 SCT200=



000
FTUS45 KABQ 301700
TAFTCC
TAF
KTCC 301723Z 3018/3118 23010KT P6SM BKN200
     FM302100 23012G21KT P6SM SCT110 BKN200
     FM310200 25008KT P6SM FEW120 SCT200
     FM310600 29007KT P6SM SCT200
     FM311500 36007KT P6SM SCT200=



000
FTUS45 KABQ 301700
TAFROW
TAF
KROW 301723Z 3018/3118 17011KT P6SM BKN200
     FM302000 17011G17KT P6SM SCT120 BKN200
     FM302200 17011G17KT P6SM VCSH SCT120 BKN200
     FM310100 VRB05KT P6SM FEW120 SCT200=



000
FTUS45 KABQ 301700
TAFROW
TAF
KROW 301723Z 3018/3118 17011KT P6SM BKN200
     FM302000 17011G17KT P6SM SCT120 BKN200
     FM302200 17011G17KT P6SM VCSH SCT120 BKN200
     FM310100 VRB05KT P6SM FEW120 SCT200=



000
FTUS45 KABQ 301700
TAFTCC
TAF
KTCC 301723Z 3018/3118 23010KT P6SM BKN200
     FM302100 23012G21KT P6SM SCT110 BKN200
     FM310200 25008KT P6SM FEW120 SCT200
     FM310600 29007KT P6SM SCT200
     FM311500 36007KT P6SM SCT200=



000
FTUS45 KABQ 301700
TAFLVS
TAF
KLVS 301723Z 3018/3118 21011KT P6SM FEW120 SCT200
     FM302000 23012G20KT P6SM SCT120 BKN200
     FM302300 25012G20KT P6SM VCSH SCT110 BKN200
     FM310300 VRB04KT P6SM FEW120 SCT200
     FM310700 35006KT P6SM SCT200=



000
FTUS45 KABQ 301700
TAFABQ
TAF
KABQ 301723Z 3018/3118 VRB04KT P6SM SCT250
     FM302100 26010KT P6SM SCT120 BKN200
     FM310200 VRB05KT P6SM FEW120 SCT200=



000
FTUS45 KABQ 301700
TAFFMN
TAF
KFMN 301723Z 3018/3118 13008KT P6SM SCT200
     FM302000 27011KT P6SM FEW130 SCT200
     FM310200 VRB05KT P6SM SCT200
     FM310800 09008KT P6SM SCT200=



000
FTUS45 KABQ 301700
TAFGUP
TAF
KGUP 301723Z 3018/3118 24007KT P6SM SCT200
     FM301900 25010G16KT P6SM SCT120 SCT200
     FM310200 VRB03KT P6SM FEW120 BKN200
     FM311200 VRB03KT P6SM SKC=



000
FTUS45 KABQ 301700
TAFABQ
TAF
KABQ 301723Z 3018/3118 VRB04KT P6SM SCT250
     FM302100 26010KT P6SM SCT120 BKN200
     FM310200 VRB05KT P6SM FEW120 SCT200=



000
FTUS45 KABQ 301700
TAFLVS
TAF
KLVS 301723Z 3018/3118 21011KT P6SM FEW120 SCT200
     FM302000 23012G20KT P6SM SCT120 BKN200
     FM302300 25012G20KT P6SM VCSH SCT110 BKN200
     FM310300 VRB04KT P6SM FEW120 SCT200
     FM310700 35006KT P6SM SCT200=



000
FTUS45 KABQ 301700
TAFFMN
TAF
KFMN 301723Z 3018/3118 13008KT P6SM SCT200
     FM302000 27011KT P6SM FEW130 SCT200
     FM310200 VRB05KT P6SM SCT200
     FM310800 09008KT P6SM SCT200=



000
FTUS45 KABQ 301700
TAFSAF
TAF
KSAF 301723Z 3018/3118 24008KT P6SM FEW120 SCT200
     FM302200 26010G18KT P6SM VCSH BKN110
     FM310100 01010KT P6SM FEW120 SCT200=



000
FTUS45 KABQ 301700
TAFGUP
TAF
KGUP 301723Z 3018/3118 24007KT P6SM SCT200
     FM301900 25010G16KT P6SM SCT120 SCT200
     FM310200 VRB03KT P6SM FEW120 BKN200
     FM311200 VRB03KT P6SM SKC=



000
FTUS45 KABQ 301100
TAFFMN
TAF
KFMN 301120Z 3012/3112 09008KT P6SM SCT200
     FM302100 27010G16KT P6SM FEW130 SCT200
     FM310200 VRB05KT P6SM SKC=



000
FTUS45 KABQ 301100
TAFTCC
TAF
KTCC 301120Z 3012/3112 23010KT P6SM BKN250
     FM302100 22014G22KT P6SM SCT110 BKN200
     FM310200 25008KT P6SM FEW120 SCT200=



000
FTUS45 KABQ 301100
TAFROW
TAF
KROW 301120Z 3012/3112 16008KT P6SM BKN250
     FM302000 17010KT P6SM SCT120 BKN200
     FM310400 23006KT P6SM FEW120 SCT200=



000
FTUS45 KABQ 301100
TAFLVS
TAF
KLVS 301120Z 3012/3112 21008KT P6SM SCT250
     FM301900 20010G18KT P6SM FEW120 SCT200
     FM302030 23012G20KT P6SM FEW120 BKN200
     FM310000 33005KT P6SM VCSH SCT110 SCT200
     FM310300 VRB04KT P6SM FEW120 SCT200=



000
FTUS45 KABQ 301100
TAFSAF
TAF
KSAF 301120Z 3012/3112 VRB05KT P6SM SCT250
     FM301800 26008KT P6SM FEW120 BKN200
     FM302200 26010G18KT P6SM VCSH BKN110
     FM310100 01010KT P6SM FEW120 SCT200=



000
FTUS45 KABQ 301100
TAFROW
TAF
KROW 301120Z 3012/3112 16008KT P6SM BKN250
     FM302000 17010KT P6SM SCT120 BKN200
     FM310400 23006KT P6SM FEW120 SCT200=



000
FTUS45 KABQ 301100
TAFGUP
TAF
KGUP 301120Z 3012/3112 VRB03KT P6SM FEW130 BKN200
     FM301900 25010G16KT P6SM SCT120 SCT200
     FM310200 VRB03KT P6SM FEW120 SCT200=



000
FTUS45 KABQ 301100
TAFABQ
TAF
KABQ 301120Z 3012/3112 VRB04KT P6SM SCT250
     FM302100 26010G18KT P6SM SCT120 BKN200
     FM310200 17005KT P6SM FEW120 SCT200=



000
FTUS45 KABQ 301100
TAFLVS
TAF
KLVS 301120Z 3012/3112 21008KT P6SM SCT250
     FM301900 20010G18KT P6SM FEW120 SCT200
     FM302030 23012G20KT P6SM FEW120 BKN200
     FM310000 33005KT P6SM VCSH SCT110 SCT200
     FM310300 VRB04KT P6SM FEW120 SCT200=



000
FTUS45 KABQ 301100
TAFFMN
TAF
KFMN 301120Z 3012/3112 09008KT P6SM SCT200
     FM302100 27010G16KT P6SM FEW130 SCT200
     FM310200 VRB05KT P6SM SKC=



000
FTUS45 KABQ 301100
TAFSAF
TAF
KSAF 301120Z 3012/3112 VRB05KT P6SM SCT250
     FM301800 26008KT P6SM FEW120 BKN200
     FM302200 26010G18KT P6SM VCSH BKN110
     FM310100 01010KT P6SM FEW120 SCT200=



000
FTUS45 KABQ 301100
TAFGUP
TAF
KGUP 301120Z 3012/3112 VRB03KT P6SM FEW130 BKN200
     FM301900 25010G16KT P6SM SCT120 SCT200
     FM310200 VRB03KT P6SM FEW120 SCT200=



000
FTUS45 KABQ 301100
TAFABQ
TAF
KABQ 301120Z 3012/3112 VRB04KT P6SM SCT250
     FM302100 26010G18KT P6SM SCT120 BKN200
     FM310200 17005KT P6SM FEW120 SCT200=



000
FTUS45 KABQ 300500
TAFFMN
TAF
KFMN 300528Z 3006/3106 32006KT P6SM SCT250
     FM300900 09007KT P6SM SCT250
     FM302100 27010G16KT P6SM SCT130 SCT200
     FM310300 VRB05KT P6SM FEW130 SCT200=



000
FTUS45 KABQ 300500
TAFSAF
TAF
KSAF 300528Z 3006/3106 13008G16KT P6SM SCT120 SCT200
     FM300800 08008KT P6SM SCT120 SCT200
     FM301930 26008G15KT P6SM SCT120 BKN200
     FM302200 26009G16KT P6SM VCSH BKN110
     FM310300 32007KT P6SM BKN110=



000
FTUS45 KABQ 300500
TAFLVS
TAF
KLVS 300528Z 3006/3106 18009KT P6SM SCT200
     FM301900 20010G18KT P6SM FEW120 BKN200
     FM302030 20012G20KT P6SM VCSH SCT120 BKN200
     FM310300 VRB05KT P6SM FEW120 SCT200=



000
FTUS45 KABQ 300500
TAFABQ
TAF
KABQ 300528Z 3006/3106 09018G30KT P6SM FEW110 SCT200
     FM300900 10008KT P6SM BKN200
     FM301200 VRB06KT P6SM BKN200
     FM302000 26010G17KT P6SM SCT120 BKN200
     FM310200 VRB06KT P6SM SCT120 SCT200=



000
FTUS45 KABQ 300500
TAFROW
TAF
KROW 300528Z 3006/3106 VRB05KT P6SM BKN200
     FM301800 16010KT P6SM SCT120 BKN200
     FM310200 24007KT P6SM SCT120 BKN200=



000
FTUS45 KABQ 300500
TAFFMN
TAF
KFMN 300528Z 3006/3106 32006KT P6SM SCT250
     FM300900 09007KT P6SM SCT250
     FM302100 27010G16KT P6SM SCT130 SCT200
     FM310300 VRB05KT P6SM FEW130 SCT200=



000
FTUS45 KABQ 300500
TAFGUP
TAF
KGUP 300528Z 3006/3106 VRB03KT P6SM SCT250
     FM301900 26010G16KT P6SM SCT120 SCT200
     FM310200 VRB03KT P6SM FEW120 SCT200=



000
FTUS45 KABQ 300500
TAFTCC
TAF
KTCC 300528Z 3006/3106 VRB05KT P6SM SCT250
     FM301500 22010KT P6SM BKN200
     FM302000 21014G22KT P6SM SCT110 BKN200
     FM310200 23008KT P6SM FEW110 BKN200=



000
FTUS45 KABQ 300500
TAFTCC
TAF
KTCC 300528Z 3006/3106 VRB05KT P6SM SCT250
     FM301500 22010KT P6SM BKN200
     FM302000 21014G22KT P6SM SCT110 BKN200
     FM310200 23008KT P6SM FEW110 BKN200=



000
FTUS45 KABQ 300500
TAFLVS
TAF
KLVS 300528Z 3006/3106 18009KT P6SM SCT200
     FM301900 20010G18KT P6SM FEW120 BKN200
     FM302030 20012G20KT P6SM VCSH SCT120 BKN200
     FM310300 VRB05KT P6SM FEW120 SCT200=



000
FTUS45 KABQ 300500
TAFROW
TAF
KROW 300528Z 3006/3106 VRB05KT P6SM BKN200
     FM301800 16010KT P6SM SCT120 BKN200
     FM310200 24007KT P6SM SCT120 BKN200=



000
FTUS45 KABQ 300500
TAFSAF
TAF
KSAF 300528Z 3006/3106 13008G16KT P6SM SCT120 SCT200
     FM300800 08008KT P6SM SCT120 SCT200
     FM301930 26008G15KT P6SM SCT120 BKN200
     FM302200 26009G16KT P6SM VCSH BKN110
     FM310300 32007KT P6SM BKN110=



000
FTUS45 KABQ 300500
TAFGUP
TAF
KGUP 300528Z 3006/3106 VRB03KT P6SM SCT250
     FM301900 26010G16KT P6SM SCT120 SCT200
     FM310200 VRB03KT P6SM FEW120 SCT200=



000
FTUS45 KABQ 300500
TAFABQ
TAF
KABQ 300528Z 3006/3106 09018G30KT P6SM FEW110 SCT200
     FM300900 10008KT P6SM BKN200
     FM301200 VRB06KT P6SM BKN200
     FM302000 26010G17KT P6SM SCT120 BKN200
     FM310200 VRB06KT P6SM SCT120 SCT200=



000
FTUS45 KABQ 292300
TAFGUP
TAF
KGUP 292338Z 3000/3024 24011KT P6SM FEW120 BKN250
     FM300230 00000KT P6SM BKN250
     FM301900 26010G16KT P6SM SCT120 SCT200=



000
FTUS45 KABQ 292300
TAFFMN
TAF
KFMN 292338Z 3000/3024 28012G20KT P6SM SCT250
     FM300200 30006KT P6SM SCT250
     FM300900 09007KT P6SM SCT250
     FM302100 27010G16KT P6SM SCT130 SCT200=



000
FTUS45 KABQ 292300
TAFROW
TAF
KROW 292338Z 3000/3024 07009KT P6SM SCT250
     FM300700 VRB03KT P6SM BKN200
     FM301800 16010KT P6SM SCT120 BKN200=



000
FTUS45 KABQ 292300
TAFTCC
TAF
KTCC 292338Z 3000/3024 08011KT P6SM SCT250
     FM300200 VRB05KT P6SM SCT250
     FM301500 22010KT P6SM SCT150 BKN200
     FM302000 21012G20KT P6SM SCT150 BKN200=



000
FTUS45 KABQ 292300
TAFGUP
TAF
KGUP 292338Z 3000/3024 24011KT P6SM FEW120 BKN250
     FM300230 00000KT P6SM BKN250
     FM301900 26010G16KT P6SM SCT120 SCT200=



000
FTUS45 KABQ 292300
TAFSAF
TAF
KSAF 292338Z 3000/3024 13014G24KT P6SM SCT120 SCT200
     FM300900 08008KT P6SM SCT120 SCT200
     FM301930 26008G15KT P6SM SCT120 BKN200
     FM302200 26009G16KT P6SM VCSH BKN110=



000
FTUS45 KABQ 292300
TAFABQ
TAF
KABQ 292338Z 3000/3024 VRB06KT P6SM FEW110 SCT200
     FM300130 09018G30KT P6SM FEW110 SCT200
     FM300900 10008KT P6SM BKN200
     FM301300 VRB06KT P6SM BKN200
     FM302000 26010G17KT P6SM SCT120 BKN200=



000
FTUS45 KABQ 292300
TAFLVS
TAF
KLVS 292338Z 3000/3024 15015G25KT P6SM VCSH BKN110
      TEMPO 3000/3002 VRB15G35KT -TSRA BKN110CB
     FM300300 18009KT P6SM BKN120
     FM301900 20010G18KT P6SM FEW120 BKN200
     FM302030 20012G20KT P6SM VCSH SCT120 BKN200=



000
FTUS45 KABQ 292300
TAFROW
TAF
KROW 292338Z 3000/3024 07009KT P6SM SCT250
     FM300700 VRB03KT P6SM BKN200
     FM301800 16010KT P6SM SCT120 BKN200=



000
FTUS45 KABQ 292300
TAFTCC
TAF
KTCC 292338Z 3000/3024 08011KT P6SM SCT250
     FM300200 VRB05KT P6SM SCT250
     FM301500 22010KT P6SM SCT150 BKN200
     FM302000 21012G20KT P6SM SCT150 BKN200=



000
FTUS45 KABQ 292300
TAFSAF
TAF
KSAF 292338Z 3000/3024 13014G24KT P6SM SCT120 SCT200
     FM300900 08008KT P6SM SCT120 SCT200
     FM301930 26008G15KT P6SM SCT120 BKN200
     FM302200 26009G16KT P6SM VCSH BKN110=



000
FTUS45 KABQ 292300
TAFFMN
TAF
KFMN 292338Z 3000/3024 28012G20KT P6SM SCT250
     FM300200 30006KT P6SM SCT250
     FM300900 09007KT P6SM SCT250
     FM302100 27010G16KT P6SM SCT130 SCT200=



000
FTUS45 KABQ 292300
TAFABQ
TAF
KABQ 292338Z 3000/3024 VRB06KT P6SM FEW110 SCT200
     FM300130 09018G30KT P6SM FEW110 SCT200
     FM300900 10008KT P6SM BKN200
     FM301300 VRB06KT P6SM BKN200
     FM302000 26010G17KT P6SM SCT120 BKN200=



000
FTUS45 KABQ 292300
TAFLVS
TAF
KLVS 292338Z 3000/3024 15015G25KT P6SM VCSH BKN110
      TEMPO 3000/3002 VRB15G35KT -TSRA BKN110CB
     FM300300 18009KT P6SM BKN120
     FM301900 20010G18KT P6SM FEW120 BKN200
     FM302030 20012G20KT P6SM VCSH SCT120 BKN200=



000
FTUS45 KABQ 292100 AAA
TAFTCC
TAF AMD
KTCC 292140Z 2922/3018 07014G22KT P6SM SCT200
     FM300200 11007KT P6SM BKN120
     FM301500 22010KT P6SM BKN200=



    US Dept of Commerce
    National Oceanic and Atmospheric Administration
    National Weather Service
    1325 East West Highway
    Silver Spring, MD 20910
    Page Author: NWS Internet Services Team
Disclaimer
Information Quality
Credits
Glossary
Privacy Policy
Freedom of Information Act (FOIA)
About Us
Career Opportunities